createdAt,value
2022-12-01T00:02:21.839Z,23.50
2022-12-01T00:04:48.890Z,22.98
2022-12-01T00:07:15.631Z,22.13
2022-12-01T00:10:02.359Z,23.33
2022-12-01T00:12:30.117Z,23.55
2022-12-01T00:15:01.101Z,24.30
2022-12-01T00:17:29.200Z,26.10
2022-12-01T00:19:56.405Z,23.17
2022-12-01T00:22:23.247Z,24.30
2022-12-01T00:24:51.312Z,26.25
2022-12-01T00:27:18.097Z,25.98
2022-12-01T00:29:46.367Z,26.73
2022-12-01T00:32:13.330Z,26.75
2022-12-01T00:34:40.307Z,28.58
2022-12-01T00:37:07.032Z,28.08
2022-12-01T00:39:33.795Z,28.27
2022-12-01T00:42:01.868Z,28.70
2022-12-01T00:44:28.615Z,28.90
2022-12-01T00:46:55.333Z,26.65
2022-12-01T00:49:22.007Z,32.33
2022-12-01T00:51:48.745Z,30.40
2022-12-01T00:54:15.494Z,31.95
2022-12-01T00:56:45.264Z,29.88
2022-12-01T00:59:13.551Z,34.28
2022-12-01T01:01:40.397Z,29.77
2022-12-01T01:04:07.119Z,34.45
2022-12-01T01:06:33.885Z,32.30
2022-12-01T01:09:00.540Z,30.75
2022-12-01T01:11:27.286Z,35.90
2022-12-01T01:13:53.942Z,32.42
2022-12-01T01:16:22.882Z,40.92
2022-12-01T01:18:49.910Z,38.10
2022-12-01T01:21:19.227Z,43.35
2022-12-01T01:23:46.088Z,40.92
2022-12-01T01:26:16.038Z,42.55
2022-12-01T01:28:42.720Z,47.30
2022-12-01T01:31:11.958Z,43.90
2022-12-01T01:33:40.122Z,40.75
2022-12-01T01:36:07.540Z,41.47
2022-12-01T01:38:34.756Z,51.67
2022-12-01T01:41:01.583Z,52.33
2022-12-01T01:43:44.624Z,62.05
2022-12-01T01:46:14.352Z,45.70
2022-12-01T01:48:46.075Z,46.85
2022-12-01T01:51:14.645Z,43.28
2022-12-01T01:53:43.004Z,46.63
2022-12-01T01:56:14.361Z,59.83
2022-12-01T01:58:42.272Z,86.10
2022-12-01T02:01:09.091Z,49.33
2022-12-01T02:03:37.207Z,62.15
2022-12-01T02:06:07.778Z,57.70
2022-12-01T02:08:35.920Z,60.35
2022-12-01T02:11:22.347Z,50.40
2022-12-01T02:14:04.081Z,50.28
2022-12-01T02:16:41.615Z,77.07
2022-12-01T02:19:29.850Z,91.95
2022-12-01T02:22:11.041Z,173.45
2022-12-01T02:25:05.367Z,102.05
2022-12-01T02:27:51.113Z,88.15
2022-12-01T02:30:27.395Z,89.13
2022-12-01T02:33:06.851Z,74.55
2022-12-01T02:35:43.934Z,64.60
2022-12-01T02:38:18.251Z,63.50
2022-12-01T02:40:50.786Z,142.68
2022-12-01T02:43:27.274Z,112.28
2022-12-01T02:45:59.275Z,148.68
2022-12-01T02:48:29.827Z,126.65
2022-12-01T02:51:01.071Z,127.25
2022-12-01T02:53:27.806Z,108.78
2022-12-01T02:55:57.753Z,102.60
2022-12-01T02:58:24.586Z,52.42
2022-12-01T03:01:20.672Z,61.95
2022-12-01T03:04:02.612Z,48.72
2022-12-01T03:06:39.868Z,54.58
2022-12-01T03:09:15.738Z,52.10
2022-12-01T03:11:53.379Z,43.05
2022-12-01T03:14:33.487Z,46.35
2022-12-01T03:17:08.077Z,54.90
2022-12-01T03:19:41.502Z,41.08
2022-12-01T03:22:12.641Z,52.53
2022-12-01T03:24:43.431Z,47.65
2022-12-01T03:27:13.843Z,60.88
2022-12-01T03:29:44.997Z,70.88
2022-12-01T03:32:19.408Z,79.82
2022-12-01T03:34:50.186Z,77.30
2022-12-01T03:37:22.427Z,109.78
2022-12-01T03:39:54.741Z,107.05
2022-12-01T03:42:28.172Z,107.13
2022-12-01T03:44:58.581Z,80.88
2022-12-01T03:47:32.143Z,63.05
2022-12-01T03:50:00.566Z,73.05
2022-12-01T03:52:38.681Z,51.55
2022-12-01T03:55:12.035Z,64.47
2022-12-01T03:57:45.671Z,56.78
2022-12-01T04:00:15.145Z,46.15
2022-12-01T04:02:44.883Z,47.90
2022-12-01T04:05:11.854Z,35.33
2022-12-01T04:07:39.764Z,39.00
2022-12-01T04:10:08.044Z,31.48
2022-12-01T04:12:35.008Z,34.67
2022-12-01T04:15:04.168Z,33.67
2022-12-01T04:17:30.970Z,30.33
2022-12-01T04:19:58.998Z,28.38
2022-12-01T04:22:26.301Z,31.77
2022-12-01T04:24:53.338Z,27.70
2022-12-01T04:27:20.432Z,33.83
2022-12-01T04:29:47.719Z,32.45
2022-12-01T04:32:15.029Z,30.42
2022-12-01T04:34:41.761Z,29.25
2022-12-01T04:37:10.223Z,25.42
2022-12-01T04:39:37.227Z,24.83
2022-12-01T04:42:04.301Z,24.63
2022-12-01T04:44:34.724Z,28.35
2022-12-01T04:47:02.437Z,27.67
2022-12-01T04:49:29.271Z,34.30
2022-12-01T04:51:56.074Z,39.13
2022-12-01T04:54:24.729Z,33.58
2022-12-01T04:56:51.389Z,38.72
2022-12-01T04:59:18.043Z,37.13
2022-12-01T05:01:46.634Z,41.10
2022-12-01T05:04:13.943Z,36.45
2022-12-01T05:06:42.710Z,30.77
2022-12-01T05:09:17.089Z,37.85
2022-12-01T05:11:46.127Z,33.60
2022-12-01T05:14:12.940Z,35.70
2022-12-01T05:16:39.816Z,37.15
2022-12-01T05:19:25.421Z,36.47
2022-12-01T05:21:52.518Z,35.70
2022-12-01T05:24:20.115Z,36.72
2022-12-01T05:26:48.387Z,34.65
2022-12-01T05:29:15.314Z,33.60
2022-12-01T05:31:42.071Z,36.08
2022-12-01T05:34:09.089Z,33.33
2022-12-01T05:36:36.460Z,27.65
2022-12-01T05:39:03.681Z,30.60
2022-12-01T05:41:30.701Z,26.00
2022-12-01T05:43:58.885Z,24.08
2022-12-01T05:46:25.761Z,25.73
2022-12-01T05:48:52.470Z,29.08
2022-12-01T05:51:19.130Z,30.92
2022-12-01T05:53:46.048Z,26.63
2022-12-01T05:56:13.032Z,26.42
2022-12-01T05:58:41.059Z,30.95
2022-12-01T06:01:09.220Z,30.65
2022-12-01T06:03:35.920Z,31.88
2022-12-01T06:06:03.615Z,33.35
2022-12-01T06:08:30.527Z,32.58
2022-12-01T06:10:57.747Z,36.17
2022-12-01T06:13:24.550Z,34.45
2022-12-01T06:15:58.189Z,33.75
2022-12-01T06:18:27.537Z,35.83
2022-12-01T06:20:54.275Z,36.92
2022-12-01T06:23:21.190Z,37.78
2022-12-01T06:25:48.190Z,42.15
2022-12-01T06:28:14.969Z,37.38
2022-12-01T06:30:41.679Z,45.45
2022-12-01T06:33:08.326Z,45.30
2022-12-01T06:35:37.414Z,48.97
2022-12-01T06:38:04.406Z,43.72
2022-12-01T06:40:31.220Z,49.28
2022-12-01T06:43:00.539Z,41.92
2022-12-01T06:45:27.339Z,49.83
2022-12-01T06:47:54.472Z,45.72
2022-12-01T06:50:21.505Z,47.47
2022-12-01T06:52:49.696Z,45.60
2022-12-01T06:55:16.581Z,46.58
2022-12-01T06:57:43.532Z,48.55
2022-12-01T07:00:12.700Z,45.28
2022-12-01T07:02:40.292Z,50.08
2022-12-01T07:05:07.780Z,49.45
2022-12-01T07:07:36.222Z,49.00
2022-12-01T07:10:05.065Z,43.83
2022-12-01T07:12:32.066Z,47.67
2022-12-01T07:15:01.248Z,50.75
2022-12-01T07:17:28.216Z,47.38
2022-12-01T07:19:54.880Z,49.80
2022-12-01T07:22:21.584Z,49.40
2022-12-01T07:24:48.307Z,50.65
2022-12-01T07:27:16.937Z,52.28
2022-12-01T07:29:43.881Z,53.40
2022-12-01T07:32:13.447Z,52.80
2022-12-01T07:34:40.566Z,57.60
2022-12-01T07:37:07.255Z,59.55
2022-12-01T07:39:33.972Z,45.25
2022-12-01T07:42:00.715Z,47.63
2022-12-01T07:44:28.880Z,49.13
2022-12-01T07:46:55.853Z,45.35
2022-12-01T07:49:22.523Z,41.78
2022-12-01T07:51:49.318Z,43.45
2022-12-01T07:54:17.636Z,44.00
2022-12-01T07:56:44.479Z,48.42
2022-12-01T07:59:12.199Z,39.03
2022-12-01T08:01:44.479Z,39.92
2022-12-01T08:04:12.380Z,40.53
2022-12-01T08:06:39.321Z,42.35
2022-12-01T08:09:06.451Z,42.70
2022-12-01T08:11:33.368Z,38.80
2022-12-01T08:14:00.105Z,36.63
2022-12-01T08:16:27.097Z,37.90
2022-12-01T08:18:55.325Z,40.75
2022-12-01T08:21:24.103Z,39.15
2022-12-01T08:23:54.415Z,37.85
2022-12-01T08:26:22.622Z,38.95
2022-12-01T08:28:49.696Z,37.35
2022-12-01T08:31:18.835Z,38.55
2022-12-01T08:33:46.287Z,41.08
2022-12-01T08:36:15.515Z,40.47
2022-12-01T08:38:44.051Z,39.08
2022-12-01T08:41:11.474Z,41.97
2022-12-01T08:43:57.181Z,44.08
2022-12-01T08:46:25.523Z,36.80
2022-12-01T08:48:55.050Z,35.50
2022-12-01T08:51:24.163Z,38.80
2022-12-01T08:53:51.483Z,36.38
2022-12-01T08:56:20.833Z,37.20
2022-12-01T08:58:47.558Z,36.17
2022-12-01T09:01:16.424Z,36.58
2022-12-01T09:03:44.189Z,38.58
2022-12-01T09:06:13.901Z,37.30
2022-12-01T09:08:42.608Z,36.58
2022-12-01T09:11:12.894Z,36.90
2022-12-01T09:13:40.742Z,35.70
2022-12-01T09:16:10.452Z,39.67
2022-12-01T09:18:37.417Z,36.20
2022-12-01T09:21:10.917Z,35.42
2022-12-01T09:23:37.758Z,37.25
2022-12-01T09:26:10.843Z,33.67
2022-12-01T09:28:40.070Z,34.35
2022-12-01T09:31:08.370Z,35.60
2022-12-01T09:33:35.462Z,35.75
2022-12-01T09:36:03.533Z,35.75
2022-12-01T09:38:30.815Z,35.13
2022-12-01T09:41:01.338Z,33.97
2022-12-01T09:43:35.271Z,37.80
2022-12-01T09:48:34.752Z,35.20
2022-12-01T09:51:01.691Z,33.35
2022-12-01T09:53:29.763Z,38.10
2022-12-01T09:56:04.172Z,34.95
2022-12-01T09:58:35.477Z,32.95
2022-12-01T10:01:02.395Z,33.50
2022-12-01T10:03:34.859Z,32.55
2022-12-01T10:09:05.628Z,33.97
2022-12-01T10:11:36.962Z,32.22
2022-12-01T10:14:13.960Z,35.72
2022-12-01T10:16:49.051Z,33.50
2022-12-01T10:19:21.956Z,34.65
2022-12-01T10:22:02.773Z,34.03
2022-12-01T10:24:47.080Z,32.30
2022-12-01T10:27:30.593Z,32.67
2022-12-01T10:30:04.800Z,35.63
2022-12-01T10:32:41.130Z,33.65
2022-12-01T10:35:11.246Z,35.95
2022-12-01T10:37:38.482Z,32.72
2022-12-01T10:40:12.128Z,32.05
2022-12-01T10:42:43.021Z,34.30
2022-12-01T10:45:19.620Z,31.95
2022-12-01T10:48:09.477Z,34.10
2022-12-01T10:50:37.165Z,33.10
2022-12-01T10:53:04.706Z,32.40
2022-12-01T10:55:33.987Z,32.40
2022-12-01T10:58:09.257Z,30.98
2022-12-01T11:03:30.511Z,34.28
2022-12-01T11:06:00.029Z,33.63
2022-12-01T11:08:34.043Z,33.85
2022-12-01T11:11:01.612Z,31.48
2022-12-01T11:13:31.259Z,33.88
2022-12-01T11:16:01.206Z,34.40
2022-12-01T11:18:32.871Z,30.65
2022-12-01T11:21:12.742Z,33.83
2022-12-01T11:23:45.508Z,32.22
2022-12-01T11:26:15.984Z,32.92
2022-12-01T11:28:52.248Z,25.58
2022-12-01T11:31:28.405Z,28.48
2022-12-01T11:33:57.924Z,22.92
2022-12-01T11:36:45.353Z,24.30
2022-12-01T11:39:26.721Z,25.23
2022-12-01T11:41:56.710Z,24.58
2022-12-01T11:47:24.973Z,22.90
2022-12-01T11:49:56.655Z,21.55
2022-12-01T11:52:30.004Z,21.65
2022-12-01T11:54:59.435Z,24.45
2022-12-01T11:57:35.216Z,24.90
2022-12-01T12:00:13.320Z,26.13
2022-12-01T12:02:51.992Z,25.73
2022-12-01T12:05:49.073Z,27.80
2022-12-01T12:08:26.854Z,26.92
2022-12-01T12:11:00.841Z,27.88
2022-12-01T12:13:51.786Z,25.95
2022-12-01T12:16:32.015Z,25.15
2022-12-01T12:19:25.405Z,28.85
2022-12-01T12:22:14.821Z,25.58
2022-12-01T12:24:55.500Z,26.42
2022-12-01T12:27:36.563Z,27.88
2022-12-01T12:30:17.925Z,24.98
2022-12-01T12:33:12.239Z,27.63
2022-12-01T12:35:50.486Z,26.00
2022-12-01T12:38:36.043Z,25.08
2022-12-01T12:41:18.506Z,26.17
2022-12-01T12:43:56.786Z,23.90
2022-12-01T12:46:32.122Z,27.23
2022-12-01T12:49:21.455Z,27.30
2022-12-01T12:51:57.134Z,27.40
2022-12-01T12:54:27.930Z,25.02
2022-12-01T12:57:00.631Z,27.25
2022-12-01T12:59:34.943Z,27.58
2022-12-01T13:02:09.830Z,28.35
2022-12-01T13:04:43.115Z,26.25
2022-12-01T13:07:32.250Z,28.00
2022-12-01T13:10:07.074Z,25.65
2022-12-01T13:12:39.407Z,30.08
2022-12-01T13:15:15.469Z,29.23
2022-12-01T13:17:46.195Z,28.33
2022-12-01T13:20:15.472Z,25.90
2022-12-01T13:22:46.040Z,26.77
2022-12-01T13:25:15.352Z,27.88
2022-12-01T13:27:44.293Z,28.80
2022-12-01T13:30:18.545Z,27.45
2022-12-01T13:32:46.514Z,25.98
2022-12-01T13:35:24.279Z,28.20
2022-12-01T13:37:54.094Z,28.33
2022-12-01T13:40:23.207Z,30.20
2022-12-01T13:43:00.272Z,26.30
2022-12-01T13:45:32.550Z,28.73
2022-12-01T13:48:00.613Z,28.13
2022-12-01T13:50:56.553Z,28.83
2022-12-01T13:53:34.400Z,28.42
2022-12-01T13:56:24.143Z,26.42
2022-12-01T13:58:52.831Z,29.00
2022-12-01T14:01:42.881Z,25.92
2022-12-01T14:04:34.844Z,26.13
2022-12-01T14:07:26.088Z,30.75
2022-12-01T14:09:58.253Z,24.17
2022-12-01T14:12:30.351Z,25.10
2022-12-01T14:15:00.979Z,24.70
2022-12-01T14:17:31.007Z,26.48
2022-12-01T14:20:08.538Z,26.17
2022-12-01T14:22:39.100Z,31.35
2022-12-01T14:25:30.430Z,27.35
2022-12-01T14:27:58.745Z,25.90
2022-12-01T14:31:05.975Z,25.73
2022-12-01T14:33:52.880Z,25.52
2022-12-01T14:36:27.604Z,24.15
2022-12-01T14:39:01.570Z,25.20
2022-12-01T14:44:04.944Z,25.92
2022-12-01T14:46:40.825Z,27.15
2022-12-01T14:49:14.368Z,27.92
2022-12-01T14:51:46.013Z,27.20
2022-12-01T14:54:21.243Z,23.65
2022-12-01T14:56:53.787Z,24.17
2022-12-01T14:59:22.992Z,25.40
2022-12-01T15:01:52.795Z,24.73
2022-12-01T15:04:20.199Z,25.80
2022-12-01T15:06:52.825Z,30.80
2022-12-01T15:09:36.643Z,30.23
2022-12-01T15:12:09.288Z,24.42
2022-12-01T15:14:38.175Z,28.13
2022-12-01T15:17:07.103Z,27.20
2022-12-01T15:19:36.408Z,28.17
2022-12-01T15:22:07.392Z,28.40
2022-12-01T15:24:34.488Z,27.48
2022-12-01T15:27:04.011Z,28.58
2022-12-01T15:29:35.458Z,29.05
2022-12-01T15:32:06.205Z,26.65
2022-12-01T15:34:36.779Z,27.38
2022-12-01T15:37:05.487Z,26.25
2022-12-01T15:39:36.057Z,31.17
2022-12-01T15:42:04.269Z,27.20
2022-12-01T15:44:34.521Z,29.88
2022-12-01T15:47:32.688Z,30.92
2022-12-01T15:49:59.497Z,29.90
2022-12-01T15:52:26.669Z,30.67
2022-12-01T15:54:56.797Z,30.27
2022-12-01T15:57:25.565Z,30.90
2022-12-01T15:59:59.610Z,37.45
2022-12-01T16:02:31.461Z,33.20
2022-12-01T16:05:04.404Z,30.98
2022-12-01T16:07:57.188Z,37.28
2022-12-01T16:10:30.375Z,36.42
2022-12-01T16:13:35.708Z,32.90
2022-12-01T16:16:21.171Z,34.75
2022-12-01T16:18:53.650Z,36.35
2022-12-01T16:21:20.719Z,33.88
2022-12-01T16:23:47.597Z,33.20
2022-12-01T16:26:14.457Z,33.30
2022-12-01T16:28:42.294Z,34.55
2022-12-01T16:31:19.077Z,33.30
2022-12-01T16:33:46.189Z,35.50
2022-12-01T16:36:25.414Z,35.17
2022-12-01T16:38:53.405Z,35.10
2022-12-01T16:41:37.924Z,35.85
2022-12-01T16:44:27.596Z,36.08
2022-12-01T16:46:53.598Z,34.75
2022-12-01T16:49:20.612Z,35.00
2022-12-01T16:51:55.785Z,42.03
2022-12-01T16:54:23.182Z,36.58
2022-12-01T16:56:49.897Z,39.05
2022-12-01T16:59:16.608Z,39.53
2022-12-01T17:01:43.399Z,40.55
2022-12-01T17:04:11.799Z,37.30
2022-12-01T17:06:38.771Z,36.65
2022-12-01T17:09:06.081Z,37.17
2022-12-01T17:11:32.872Z,39.72
2022-12-01T17:13:59.837Z,39.28
2022-12-01T17:16:28.006Z,39.60
2022-12-01T17:18:58.675Z,41.15
2022-12-01T17:21:26.946Z,39.22
2022-12-01T17:23:53.773Z,36.83
2022-12-01T17:26:21.594Z,38.03
2022-12-01T17:28:48.906Z,37.60
2022-12-01T17:31:16.486Z,35.97
2022-12-01T17:33:43.250Z,40.47
2022-12-01T17:36:12.316Z,40.40
2022-12-01T17:38:43.086Z,42.47
2022-12-01T17:41:11.693Z,38.92
2022-12-01T17:43:39.307Z,43.67
2022-12-01T17:46:08.298Z,40.70
2022-12-01T17:48:36.510Z,44.30
2022-12-01T17:51:03.763Z,44.30
2022-12-01T17:53:32.153Z,43.42
2022-12-01T17:56:00.847Z,36.97
2022-12-01T17:58:28.444Z,137.45
2022-12-01T18:00:55.545Z,40.03
2022-12-01T18:03:22.408Z,36.05
2022-12-01T18:05:56.121Z,38.38
2022-12-01T18:08:23.620Z,42.20
2022-12-01T18:10:50.577Z,37.05
2022-12-01T18:13:21.233Z,38.13
2022-12-01T18:15:48.262Z,41.10
2022-12-01T18:18:16.969Z,38.70
2022-12-01T18:20:44.928Z,41.80
2022-12-01T18:23:12.886Z,41.83
2022-12-01T18:25:40.535Z,38.75
2022-12-01T18:28:07.902Z,41.22
2022-12-01T18:30:35.994Z,42.60
2022-12-01T18:33:02.709Z,42.38
2022-12-01T18:35:31.936Z,43.47
2022-12-01T18:37:59.457Z,41.65
2022-12-01T18:40:26.309Z,39.03
2022-12-01T18:42:53.218Z,43.50
2022-12-01T18:45:21.961Z,41.45
2022-12-01T18:47:50.199Z,176.02
2022-12-01T18:50:17.150Z,239.45
2022-12-01T18:52:43.885Z,42.25
2022-12-01T18:55:11.126Z,38.38
2022-12-01T18:57:37.962Z,37.60
2022-12-01T19:00:06.245Z,40.03
2022-12-01T19:02:33.260Z,39.92
2022-12-01T19:05:01.570Z,42.90
2022-12-01T19:07:30.163Z,41.13
2022-12-01T19:09:57.063Z,39.60
2022-12-01T19:12:24.054Z,40.28
2022-12-01T19:14:53.142Z,43.78
2022-12-01T19:17:20.392Z,41.42
2022-12-01T19:19:47.403Z,41.70
2022-12-01T19:22:15.644Z,43.85
2022-12-01T19:24:48.652Z,38.85
2022-12-01T19:27:18.793Z,43.17
2022-12-01T19:29:47.068Z,43.17
2022-12-01T19:32:14.739Z,42.05
2022-12-01T19:34:41.967Z,41.63
2022-12-01T19:37:08.987Z,43.13
2022-12-01T19:39:37.316Z,43.78
2022-12-01T19:42:04.588Z,44.28
2022-12-01T19:44:31.347Z,42.00
2022-12-01T19:46:58.034Z,39.22
2022-12-01T19:49:25.032Z,42.55
2022-12-01T19:51:51.765Z,41.22
2022-12-01T19:54:19.983Z,40.88
2022-12-01T19:56:49.073Z,45.10
2022-12-01T19:59:16.953Z,46.25
2022-12-01T20:01:43.986Z,38.28
2022-12-01T20:04:10.928Z,59.85
2022-12-01T20:06:38.299Z,39.10
2022-12-01T20:09:07.754Z,37.25
2022-12-01T20:11:35.560Z,38.25
2022-12-01T20:14:07.581Z,34.42
2022-12-01T20:16:36.424Z,43.17
2022-12-01T20:19:06.701Z,38.35
2022-12-01T20:21:37.095Z,41.78
2022-12-01T20:24:05.943Z,39.83
2022-12-01T20:26:34.745Z,43.53
2022-12-01T20:29:04.993Z,40.92
2022-12-01T20:31:33.346Z,37.33
2022-12-01T20:34:02.614Z,67.85
2022-12-01T20:36:30.392Z,38.08
2022-12-01T20:38:57.215Z,33.53
2022-12-01T20:41:24.162Z,36.78
2022-12-01T20:43:51.176Z,33.65
2022-12-01T20:46:19.430Z,36.45
2022-12-01T20:48:46.237Z,38.58
2022-12-01T20:51:15.744Z,41.25
2022-12-01T20:54:05.591Z,42.42
2022-12-01T20:56:33.513Z,42.55
2022-12-01T20:59:00.938Z,40.40
2022-12-01T21:01:29.255Z,39.97
2022-12-01T21:03:58.897Z,40.10
2022-12-01T21:06:30.309Z,41.88
2022-12-01T21:08:57.288Z,41.55
2022-12-01T21:11:55.581Z,42.33
2022-12-01T21:14:28.232Z,42.45
2022-12-01T21:17:02.703Z,44.80
2022-12-01T21:19:43.370Z,44.47
2022-12-01T21:22:13.970Z,43.50
2022-12-01T21:24:43.779Z,44.00
2022-12-01T21:27:14.059Z,48.08
2022-12-01T21:29:43.756Z,47.05
2022-12-01T21:32:15.428Z,46.80
2022-12-01T21:34:43.444Z,46.50
2022-12-01T21:37:16.135Z,45.63
2022-12-01T21:39:43.076Z,51.33
2022-12-01T21:42:18.334Z,49.55
2022-12-01T21:44:45.625Z,49.05
2022-12-01T21:47:19.216Z,50.33
2022-12-01T21:49:47.787Z,45.53
2022-12-01T21:52:19.085Z,49.40
2022-12-01T21:54:46.368Z,56.35
2022-12-01T21:57:32.204Z,44.78
2022-12-01T22:00:23.847Z,45.05
2022-12-01T22:02:58.547Z,39.10
2022-12-01T22:05:34.994Z,45.65
2022-12-01T22:08:24.156Z,43.08
2022-12-01T22:10:56.481Z,43.88
2022-12-01T22:13:26.503Z,48.38
2022-12-01T22:15:54.921Z,49.35
2022-12-01T22:18:27.505Z,45.10
2022-12-01T22:20:54.345Z,43.22
2022-12-01T22:23:25.505Z,46.92
2022-12-01T22:25:52.205Z,45.25
2022-12-01T22:28:23.430Z,45.55
2022-12-01T22:30:50.350Z,43.22
2022-12-01T22:33:21.174Z,45.72
2022-12-01T22:35:50.490Z,45.88
2022-12-01T22:38:35.607Z,46.22
2022-12-01T22:41:09.209Z,45.78
2022-12-01T22:43:44.939Z,48.15
2022-12-01T22:46:30.964Z,47.47
2022-12-01T22:49:00.045Z,46.30
2022-12-01T22:51:38.168Z,48.70
2022-12-01T22:54:25.245Z,48.67
2022-12-01T22:57:04.197Z,45.63
2022-12-01T22:59:35.246Z,50.10
2022-12-01T23:02:12.222Z,49.95
2022-12-01T23:04:41.746Z,46.42
2022-12-01T23:07:28.429Z,53.28
2022-12-01T23:09:57.924Z,49.20
2022-12-01T23:12:30.060Z,46.97
2022-12-01T23:14:59.194Z,48.13
2022-12-01T23:17:28.336Z,55.75
2022-12-01T23:20:14.825Z,47.95
2022-12-01T23:22:43.051Z,46.72
2022-12-01T23:25:13.944Z,49.28
2022-12-01T23:27:41.147Z,49.25
2022-12-01T23:30:09.403Z,46.80
2022-12-01T23:32:36.798Z,53.00
2022-12-01T23:35:03.721Z,52.13
2022-12-01T23:37:34.214Z,49.88
2022-12-01T23:40:07.472Z,51.55
2022-12-01T23:42:34.093Z,49.60
2022-12-01T23:45:01.773Z,49.53
2022-12-01T23:47:29.908Z,49.80
2022-12-01T23:50:00.178Z,52.58
2022-12-01T23:52:33.594Z,52.47
2022-12-01T23:55:00.508Z,52.45
2022-12-01T23:57:30.616Z,51.83
